Time;durP1;ratioP1;P1;durP2;ratioP2;P2;SDS_P1;SDS_P2;PMS_P1;PMS_P2;Temp;Humidity;BMP_temperature;BMP_pressure;BME280_temperature;BME280_humidity;BME280_pressure;Samples;Min_cycle;Max_cycle;Signal;HPM_P1;HPM_P2
2022/11/21 00:02:13;;;;;;;9.23;1.88;;;;;;;5.74;100.00;100641.84;5205348;28;20025;-73
2022/11/21 00:04:44;;;;;;;6.78;1.98;;;;;;;5.84;100.00;100631.22;5205226;28;20026;-74
2022/11/21 00:07:14;;;;;;;9.23;1.50;;;;;;;5.91;100.00;100626.97;5205137;28;20105;-75
2022/11/21 00:09:45;;;;;;;11.10;1.48;;;;;;;5.94;100.00;100629.41;5205391;28;20029;-75
2022/11/21 00:12:15;;;;;;;5.80;1.67;;;;;;;5.92;100.00;100626.91;5205180;28;20025;-75
2022/11/21 00:14:46;;;;;;;5.43;1.00;;;;;;;5.98;100.00;100630.81;5204082;28;20626;-74
2022/11/21 00:17:16;;;;;;;7.35;1.08;;;;;;;6.01;100.00;100632.34;5204812;28;20569;-75
2022/11/21 00:19:47;;;;;;;4.25;1.23;;;;;;;6.02;100.00;100634.84;5205287;28;20541;-75
2022/11/21 00:22:17;;;;;;;8.27;1.20;;;;;;;6.08;100.00;100639.63;5205182;28;20391;-75
2022/11/21 00:24:48;;;;;;;14.32;1.52;;;;;;;6.10;100.00;100642.97;5203382;28;20165;-75
2022/11/21 00:27:18;;;;;;;7.55;1.30;;;;;;;6.10;100.00;100639.47;5202935;28;20021;-75
2022/11/21 00:29:48;;;;;;;7.70;2.22;;;;;;;6.15;100.00;100639.88;5204658;28;20025;-75
2022/11/21 00:32:19;;;;;;;13.50;2.00;;;;;;;6.16;100.00;100638.91;5201539;28;20443;-75
2022/11/21 00:34:49;;;;;;;14.15;2.28;;;;;;;6.15;100.00;100640.72;5205169;28;20380;-75
2022/11/21 00:37:20;;;;;;;8.82;2.00;;;;;;;6.12;100.00;100640.16;5204919;28;20036;-76
2022/11/21 00:39:50;;;;;;;18.88;2.47;;;;;;;6.10;100.00;100640.31;5204616;28;20108;-75
2022/11/21 00:42:21;;;;;;;14.70;3.40;;;;;;;6.04;100.00;100638.22;5204757;28;20032;-75
2022/11/21 00:44:51;;;;;;;9.15;2.42;;;;;;;5.96;100.00;100630.09;5205365;28;20052;-75
2022/11/21 00:47:22;;;;;;;7.00;2.30;;;;;;;5.88;100.00;100628.13;5204711;28;20049;-74
2022/11/21 00:49:52;;;;;;;11.20;2.95;;;;;;;5.83;100.00;100633.03;5205547;28;20112;-75
2022/11/21 00:52:23;;;;;;;12.70;2.60;;;;;;;5.80;100.00;100632.47;5206112;28;20036;-75
2022/11/21 00:54:53;;;;;;;13.52;2.28;;;;;;;5.76;100.00;100633.72;5205533;28;20021;-75
2022/11/21 00:57:23;;;;;;;10.32;2.92;;;;;;;5.74;100.00;100635.69;5203853;28;20075;-74
2022/11/21 00:59:54;;;;;;;9.95;2.22;;;;;;;5.71;100.00;100626.97;5204531;28;20052;-74
2022/11/21 01:02:24;;;;;;;13.27;2.67;;;;;;;5.68;100.00;100629.09;5203889;28;20036;-74
2022/11/21 01:04:55;;;;;;;12.02;2.45;;;;;;;5.65;100.00;100624.91;5204155;28;20029;-74
2022/11/21 01:07:25;;;;;;;10.82;2.60;;;;;;;5.59;100.00;100622.78;5203750;28;20172;-75
2022/11/21 01:09:56;;;;;;;7.88;2.25;;;;;;;5.52;100.00;100626.13;5204193;28;20105;-74
2022/11/21 01:12:26;;;;;;;21.42;3.20;;;;;;;5.45;100.00;100628.53;5204047;28;20053;-74
2022/11/21 01:14:56;;;;;;;22.52;3.33;;;;;;;5.34;100.00;100629.50;5204118;28;20032;-76
2022/11/21 01:17:27;;;;;;;10.38;2.63;;;;;;;5.28;100.00;100614.09;5203516;28;20086;-76
2022/11/21 01:19:57;;;;;;;9.90;2.85;;;;;;;5.20;100.00;100619.25;5204345;28;20021;-75
2022/11/21 01:22:28;;;;;;;10.48;2.92;;;;;;;5.28;100.00;100627.38;5204372;28;20028;-75
2022/11/21 01:24:59;;;;;;;11.70;3.22;;;;;;;5.34;100.00;100623.34;5200334;28;20026;-76
2022/11/21 01:27:29;;;;;;;14.85;3.35;;;;;;;5.40;100.00;100618.28;5195282;28;20030;-75
2022/11/21 01:29:59;;;;;;;10.75;3.17;;;;;;;5.49;100.00;100629.09;5198171;28;20399;-75
2022/11/21 01:32:30;;;;;;;13.15;3.40;;;;;;;5.50;100.00;100634.28;5200640;28;20500;-74
2022/11/21 01:35:00;;;;;;;14.85;3.85;;;;;;;5.51;100.00;100635.94;5203568;28;20103;-75
2022/11/21 01:37:31;;;;;;;19.30;5.43;;;;;;;5.58;100.00;100639.75;5203153;28;20052;-75
2022/11/21 01:40:02;;;;;;;17.35;3.97;;;;;;;5.57;100.00;100631.88;5203561;28;20033;-74
2022/11/21 01:43:02;;;;;;;14.63;3.58;;;;;;;5.47;100.00;100634.53;5203172;28;20022;-75
2022/11/21 01:45:52;;;;;;;13.63;4.30;;;;;;;5.45;100.00;100632.03;5192328;28;20442;-75
2022/11/21 01:49:00;;;;;;;15.45;3.88;;;;;;;5.46;100.00;100632.84;5202687;28;20021;-75
2022/11/21 01:51:59;;;;;;;18.00;4.93;;;;;;;5.46;100.00;100630.19;5181361;28;20128;-75
2022/11/21 01:54:30;;;;;;;25.02;4.70;;;;;;;5.48;100.00;100627.41;5202221;28;20018;-75
2022/11/21 01:57:07;;;;;;;19.80;4.63;;;;;;;5.59;100.00;100630.78;5202509;28;20048;-75
2022/11/21 01:59:44;;;;;;;19.92;4.70;;;;;;;5.60;100.00;100623.63;5203309;28;20039;-74
2022/11/21 02:02:18;;;;;;;22.92;5.38;;;;;;;5.63;100.00;100628.69;5203613;28;20037;-75
2022/11/21 02:04:51;;;;;;;18.98;5.47;;;;;;;5.59;100.00;100611.31;5203734;28;20024;-75
2022/11/21 02:07:24;;;;;;;19.35;5.57;;;;;;;5.65;100.00;100614.25;5202836;28;20032;-75
2022/11/21 02:09:59;;;;;;;14.13;5.13;;;;;;;5.59;100.00;100598.00;5203433;28;20087;-75
2022/11/21 02:12:39;;;;;;;30.77;5.93;;;;;;;5.70;100.00;100600.53;5203670;28;20445;-75
2022/11/21 02:15:11;;;;;;;21.15;5.80;;;;;;;5.75;100.00;100597.44;5190827;28;20032;-75
2022/11/21 02:17:41;;;;;;;26.13;6.85;;;;;;;5.77;100.00;100604.28;5190102;28;20040;-75
2022/11/21 02:20:16;;;;;;;24.02;6.15;;;;;;;5.70;100.00;100595.19;5203422;28;20025;-75
2022/11/21 02:23:13;;;;;;;22.85;5.57;;;;;;;5.70;100.00;100595.19;5203262;28;20025;-74
2022/11/21 02:25:44;;;;;;;21.30;5.72;;;;;;;5.69;100.00;100610.34;5200428;28;20437;-74
2022/11/21 02:28:18;;;;;;;17.70;5.85;;;;;;;5.69;100.00;100601.50;5189184;28;20025;-73
2022/11/21 02:30:49;;;;;;;21.05;5.63;;;;;;;5.71;100.00;100600.38;5201740;28;20022;-74
2022/11/21 02:33:19;;;;;;;17.52;5.10;;;;;;;5.71;100.00;100597.72;5201074;28;20076;-75
2022/11/21 02:36:00;;;;;;;30.48;7.45;;;;;;;5.74;100.00;100599.25;5203366;28;20506;-74
2022/11/21 02:38:35;;;;;;;17.98;5.10;;;;;;;5.75;100.00;100603.59;5202434;28;20040;-75
2022/11/21 02:41:11;;;;;;;;;;;;;;;5.75;100.00;100603.59;5202900;28;20053;-74
2022/11/21 02:43:58;;;;;;;17.40;4.55;;;;;;;5.75;100.00;100595.63;5203266;28;19909;-74
2022/11/21 02:46:28;;;;;;;16.38;4.85;;;;;;;5.74;100.00;100593.94;5202918;28;20021;-73
2022/11/21 02:49:03;;;;;;;14.77;4.90;;;;;;;5.74;100.00;100603.75;5206830;28;20033;-74
2022/11/21 02:51:33;;;;;;;14.35;4.50;;;;;;;5.81;100.00;100611.00;5206747;28;20441;-74
2022/11/21 02:54:04;;;;;;;14.18;4.28;;;;;;;5.81;100.00;100605.69;5207167;28;20025;-74
2022/11/21 02:56:35;;;;;;;19.98;4.57;;;;;;;5.81;100.00;100600.38;5207159;28;20025;-74
2022/11/21 02:59:05;;;;;;;17.90;5.40;;;;;;;5.84;100.00;100600.09;5206738;28;20022;-74
2022/11/21 03:01:36;;;;;;;13.15;4.68;;;;;;;5.86;100.00;100611.44;5206848;28;20060;-73
2022/11/21 03:04:06;;;;;;;11.35;4.72;;;;;;;5.86;100.00;100598.13;5206522;28;20467;-74
2022/11/21 03:06:37;;;;;;;15.57;4.63;;;;;;;5.87;100.00;100590.97;5207240;28;20068;-74
2022/11/21 03:09:08;;;;;;;15.98;4.35;;;;;;;5.93;100.00;100595.78;5206112;28;20036;-73
2022/11/21 03:11:38;;;;;;;27.73;6.35;;;;;;;5.88;100.00;100592.66;5207195;28;20438;-74
2022/11/21 03:14:09;;;;;;;12.50;4.00;;;;;;;5.85;100.00;100588.47;5206506;28;20021;-73
2022/11/21 03:16:39;;;;;;;18.13;4.95;;;;;;;5.89;100.00;100584.53;5206647;28;20029;-73
2022/11/21 03:19:10;;;;;;;13.10;4.05;;;;;;;5.90;100.00;100583.53;5204927;28;20102;-74
2022/11/21 03:21:40;;;;;;;11.48;5.10;;;;;;;5.86;100.00;100582.16;5206500;28;20033;-73
2022/11/21 03:24:11;;;;;;;13.43;3.67;;;;;;;5.86;100.00;100586.63;5206685;28;20055;-74
2022/11/21 03:26:41;;;;;;;14.23;3.60;;;;;;;5.92;100.00;100581.63;5201242;28;20017;-73
2022/11/21 03:29:12;;;;;;;9.55;3.70;;;;;;;5.91;100.00;100579.94;5194277;28;20025;-74
2022/11/21 03:31:42;;;;;;;20.70;3.72;;;;;;;5.87;100.00;100577.66;5203019;28;20292;-73
2022/11/21 03:34:13;;;;;;;19.92;3.65;;;;;;;5.79;100.00;100575.72;5206620;28;20021;-73
2022/11/21 03:36:43;;;;;;;21.20;4.90;;;;;;;5.69;100.00;100570.41;5206120;28;20057;-73
2022/11/21 03:39:14;;;;;;;15.63;4.00;;;;;;;5.60;100.00;100570.41;5204881;28;20060;-73
2022/11/21 03:41:44;;;;;;;22.70;4.40;;;;;;;5.51;100.00;100574.75;5205092;28;20043;-74
2022/11/21 03:44:15;;;;;;;16.48;3.55;;;;;;;5.33;100.00;100574.63;5204951;28;20454;-73
2022/11/21 03:46:46;;;;;;;11.57;4.00;;;;;;;5.37;100.00;100575.16;5204470;28;20053;-74
2022/11/21 03:49:16;;;;;;;14.02;4.13;;;;;;;5.32;100.00;100572.94;5204947;28;20036;-74
2022/11/21 03:51:47;;;;;;;14.18;3.95;;;;;;;5.29;100.00;100575.03;5204508;28;20479;-74
2022/11/21 03:54:17;;;;;;;28.25;5.13;;;;;;;5.23;100.00;100579.09;5203620;28;20100;-74
2022/11/21 03:56:48;;;;;;;15.40;4.70;;;;;;;5.20;100.00;100569.56;5204724;28;20057;-75
2022/11/21 03:59:18;;;;;;;15.07;4.70;;;;;;;5.19;100.00;100575.84;5204041;28;20049;-75
2022/11/21 04:01:48;;;;;;;20.75;4.85;;;;;;;5.23;100.00;100589.72;5204928;28;20113;-75
2022/11/21 04:04:19;;;;;;;17.48;4.80;;;;;;;5.28;100.00;100590.16;5204092;28;20049;-74
2022/11/21 04:06:50;;;;;;;24.52;4.68;;;;;;;5.31;100.00;100586.34;5204807;28;20160;-75
2022/11/21 04:09:20;;;;;;;30.23;6.00;;;;;;;5.34;100.00;100602.91;5204276;28;20032;-74
2022/11/21 04:11:50;;;;;;;16.48;4.60;;;;;;;5.36;100.00;100605.41;5204614;28;20475;-75
2022/11/21 04:14:21;;;;;;;17.85;5.05;;;;;;;5.38;100.00;100598.97;5204436;28;20372;-74
2022/11/21 04:16:51;;;;;;;17.63;5.15;;;;;;;5.41;100.00;100603.16;5203670;28;20739;-75
2022/11/21 04:19:22;;;;;;;17.08;4.45;;;;;;;5.43;100.00;100595.91;5204468;28;20025;-74
2022/11/21 04:21:52;;;;;;;17.20;5.32;;;;;;;5.43;100.00;100588.75;5204261;28;20143;-74
2022/11/21 04:24:23;;;;;;;26.55;5.20;;;;;;;5.43;100.00;100587.94;5204616;28;20084;-75
2022/11/21 04:26:54;;;;;;;13.70;4.45;;;;;;;5.42;100.00;100592.41;5200759;28;20028;-75
2022/11/21 04:29:25;;;;;;;24.88;4.97;;;;;;;5.39;100.00;100582.03;5203585;28;20037;-74
2022/11/21 04:31:55;;;;;;;20.67;4.40;;;;;;;5.34;100.00;100565.66;5200687;28;20021;-74
2022/11/21 04:34:25;;;;;;;21.90;4.18;;;;;;;5.29;100.00;100575.03;5204237;28;20114;-73
2022/11/21 04:36:56;;;;;;;18.27;4.80;;;;;;;5.26;100.00;100573.47;5203657;28;20056;-73
2022/11/21 04:39:26;;;;;;;18.10;4.75;;;;;;;5.21;100.00;100573.03;5164580;28;1133581;-76
2022/11/21 04:41:57;;;;;;;13.93;4.20;;;;;;;5.22;100.00;100580.06;5204745;28;20514;-75
2022/11/21 04:44:27;;;;;;;15.85;4.35;;;;;;;5.21;100.00;100573.03;5205092;28;20026;-75
2022/11/21 04:46:59;;;;;;;14.98;4.70;;;;;;;5.19;100.00;100572.34;5204458;28;20079;-74
2022/11/21 04:49:29;;;;;;;17.13;4.18;;;;;;;5.19;100.00;100572.34;5204780;28;20030;-74
2022/11/21 04:51:59;;;;;;;20.08;3.88;;;;;;;5.22;100.00;100577.41;5204849;28;20091;-74
2022/11/21 04:54:30;;;;;;;20.88;5.28;;;;;;;5.21;100.00;100567.72;5204615;28;20495;-74
2022/11/21 04:57:00;;;;;;;9.45;4.20;;;;;;;5.18;100.00;100566.19;5204670;28;20200;-74
2022/11/21 04:59:31;;;;;;;18.75;4.43;;;;;;;5.20;100.00;100564.22;5204763;28;20018;-74
2022/11/21 05:02:02;;;;;;;17.67;4.50;;;;;;;5.18;100.00;100555.56;5204801;28;20032;-75
2022/11/21 05:04:32;;;;;;;13.35;4.22;;;;;;;5.19;100.00;100559.91;5204347;28;20571;-75
2022/11/21 05:07:03;;;;;;;19.38;4.10;;;;;;;5.23;100.00;100556.97;5204357;28;20112;-76
2022/11/21 05:09:34;;;;;;;13.38;4.30;;;;;;;5.25;100.00;100568.31;5203573;28;20029;-75
2022/11/21 05:14:55;;;;;;;15.77;4.20;;;;;;;5.22;100.00;100549.94;5204295;28;20076;-75
2022/11/21 05:17:27;;;;;;;16.23;6.13;;;;;;;5.19;100.00;100545.75;5203775;28;20029;-76
2022/11/21 05:19:58;;;;;;;15.63;4.57;;;;;;;5.17;100.00;100548.56;5204439;28;20024;-75
2022/11/21 05:22:28;;;;;;;17.48;4.82;;;;;;;5.11;100.00;100538.47;5204883;28;20025;-74
2022/11/21 05:24:59;;;;;;;20.13;4.85;;;;;;;5.07;100.00;100536.22;5201298;28;20061;-75
2022/11/21 05:27:29;;;;;;;15.85;4.30;;;;;;;5.06;100.00;100523.91;5202988;28;20013;-75
2022/11/21 05:30:00;;;;;;;16.55;4.43;;;;;;;5.05;100.00;100520.41;5203385;28;20415;-75
2022/11/21 05:32:30;;;;;;;21.27;6.22;;;;;;;5.03;100.00;100518.88;5199641;28;20482;-74
2022/11/21 05:35:01;;;;;;;23.52;5.85;;;;;;;5.04;100.00;100525.88;5204445;28;20065;-75
2022/11/21 05:37:31;;;;;;;18.73;5.32;;;;;;;5.01;100.00;100532.28;5203745;28;20045;-74
2022/11/21 05:40:02;;;;;;;16.65;4.78;;;;;;;4.99;100.00;100526.28;5203308;28;20025;-75
2022/11/21 05:45:21;;;;;;;13.18;3.50;;;;;;;4.99;100.00;100536.09;5203757;28;20017;-74
2022/11/21 05:47:51;;;;;;;16.27;3.78;;;;;;;5.00;100.00;100532.44;5203285;28;20030;-75
2022/11/21 05:50:22;;;;;;;20.88;5.22;;;;;;;5.04;100.00;100523.22;5204116;28;20136;-75
2022/11/21 05:52:52;;;;;;;15.63;3.90;;;;;;;5.06;100.00;100515.94;5203771;28;20033;-75
2022/11/21 05:55:23;;;;;;;14.60;4.88;;;;;;;5.04;100.00;100520.56;5203839;28;20033;-76
2022/11/21 05:57:53;;;;;;;25.45;4.75;;;;;;;5.03;100.00;100513.56;5203211;28;20025;-74
2022/11/21 06:00:23;;;;;;;19.98;5.18;;;;;;;4.99;100.00;100506.84;5203742;28;20022;-74
2022/11/21 06:05:43;;;;;;;15.75;4.45;;;;;;;4.82;100.00;100508.34;5203510;28;20025;-73
2022/11/21 06:08:13;;;;;;;17.02;4.28;;;;;;;4.69;100.00;100503.28;5203047;28;20036;-74
2022/11/21 06:10:44;;;;;;;13.32;4.20;;;;;;;4.56;100.00;100500.88;5203465;28;20495;-73
2022/11/21 06:13:32;;;;;;;15.50;4.57;;;;;;;4.49;100.00;100494.44;5203522;28;20463;-73
2022/11/21 06:16:17;;;;;;;12.52;4.30;;;;;;;4.40;100.00;100492.59;5190515;28;20466;-74
2022/11/21 06:18:51;;;;;;;17.98;5.35;;;;;;;4.29;100.00;100487.38;5203262;28;20032;-75
2022/11/21 06:21:27;;;;;;;20.98;5.05;;;;;;;4.21;100.00;100490.69;5203453;28;20100;-75
2022/11/21 06:23:57;;;;;;;17.65;5.13;;;;;;;4.15;100.00;100485.94;5202826;28;20029;-75
2022/11/21 06:26:28;;;;;;;14.07;5.05;;;;;;;4.08;100.00;100490.09;5203256;28;20060;-74
2022/11/21 06:28:58;;;;;;;22.85;5.20;;;;;;;4.02;100.00;100485.34;5189542;28;20068;-74
2022/11/21 06:31:30;;;;;;;15.43;4.93;;;;;;;3.96;100.00;100480.53;5198810;28;20022;-74
2022/11/21 06:34:01;;;;;;;13.73;4.55;;;;;;;3.89;100.00;100481.06;5203493;28;20033;-74
2022/11/21 06:36:31;;;;;;;8.82;4.10;;;;;;;3.81;100.00;100480.88;5202796;28;20083;-75
2022/11/21 06:39:02;;;;;;;13.93;4.10;;;;;;;3.72;100.00;100476.38;5202735;28;20120;-74
2022/11/21 06:41:32;;;;;;;15.25;4.47;;;;;;;3.63;100.00;100467.38;5203232;28;20538;-74
2022/11/21 06:44:03;;;;;;;12.27;4.32;;;;;;;3.58;100.00;100460.78;5203273;28;20029;-73
2022/11/21 06:46:33;;;;;;;13.60;4.13;;;;;;;3.53;100.00;100463.84;5202892;28;20030;-73
2022/11/21 06:49:03;;;;;;;29.63;5.38;;;;;;;3.49;100.00;100465.06;5202244;28;20119;-75
2022/11/21 06:51:34;;;;;;;16.90;5.05;;;;;;;3.49;100.00;100459.75;5203121;28;20029;-73
2022/11/21 06:54:04;;;;;;;17.30;5.38;;;;;;;3.43;100.00;100459.44;5203350;28;20025;-73
2022/11/21 06:56:35;;;;;;;25.38;5.28;;;;;;;3.35;100.00;100455.59;5203301;28;20075;-74
2022/11/21 06:59:05;;;;;;;30.27;6.38;;;;;;;3.32;100.00;100450.59;5202325;28;20192;-74
2022/11/21 07:01:36;;;;;;;20.77;5.53;;;;;;;3.32;100.00;100449.75;5203555;28;20091;-73
2022/11/21 07:04:06;;;;;;;25.63;5.53;;;;;;;3.28;100.00;100441.19;5202747;28;20030;-73
2022/11/21 07:06:37;;;;;;;29.42;6.10;;;;;;;3.24;100.00;100442.41;5203002;28;20029;-73
2022/11/21 07:09:07;;;;;;;30.90;5.95;;;;;;;3.18;100.00;100434.16;5202595;28;20053;-71
2022/11/21 07:11:38;;;;;;;12.45;4.97;;;;;;;3.15;100.00;100431.75;5203335;28;20248;-71
2022/11/21 07:14:08;;;;;;;32.33;10.45;;;;;;;3.15;100.00;100429.09;5202888;28;20175;-72
2022/11/21 07:16:38;;;;;;;22.98;5.80;;;;;;;3.12;100.00;100427.56;5202919;28;20020;-73
2022/11/21 07:19:10;;;;;;;15.73;5.25;;;;;;;3.08;100.00;100423.47;5202334;28;20057;-73
2022/11/21 07:21:41;;;;;;;10.63;4.72;;;;;;;3.05;100.00;100429.88;5201750;28;20025;-73
2022/11/21 07:24:12;;;;;;;17.27;5.07;;;;;;;3.04;100.00;100428.19;5202287;28;20022;-73
2022/11/21 07:26:42;;;;;;;21.67;4.97;;;;;;;3.00;100.00;100421.47;5197820;28;20123;-73
2022/11/21 07:29:13;;;;;;;23.13;6.32;;;;;;;2.98;100.00;100433.16;5190380;28;20033;-73
2022/11/21 07:31:43;;;;;;;14.68;5.15;;;;;;;3.00;100.00;100436.53;5199306;28;20030;-72
2022/11/21 07:34:14;;;;;;;17.70;5.47;;;;;;;3.08;100.00;100434.09;5205147;28;20033;-72
2022/11/21 07:36:44;;;;;;;28.05;6.00;;;;;;;3.23;100.00;100427.50;5205735;28;20025;-73
2022/11/21 07:39:15;;;;;;;17.10;5.80;;;;;;;3.34;100.00;100435.38;5205817;28;20044;-73
2022/11/21 07:41:45;;;;;;;22.65;5.55;;;;;;;3.48;100.00;100438.69;5206294;28;20025;-73
2022/11/21 07:44:16;;;;;;;16.40;4.60;;;;;;;3.57;100.00;100437.91;5205187;28;20025;-72
2022/11/21 07:46:46;;;;;;;19.40;4.38;;;;;;;3.67;100.00;100437.94;5205829;28;20108;-73
2022/11/21 07:49:17;;;;;;;10.45;3.90;;;;;;;3.76;100.00;100431.81;5205453;28;20463;-73
2022/11/21 07:51:47;;;;;;;20.58;3.63;;;;;;;3.90;100.00;100434.97;5193026;28;20025;-73
2022/11/21 07:54:18;;;;;;;13.88;3.75;;;;;;;4.04;100.00;100425.81;5206108;28;20482;-73
2022/11/21 07:56:48;;;;;;;11.35;3.53;;;;;;;4.26;100.00;100426.56;5199376;28;20483;-73
2022/11/21 07:59:18;;;;;;;11.60;4.05;;;;;;;4.44;100.00;100416.13;5186386;28;20033;-73
2022/11/21 08:01:50;;;;;;;17.15;3.50;;;;;;;4.67;100.00;100404.28;5204314;28;20049;-73
2022/11/21 08:04:20;;;;;;;13.13;3.58;;;;;;;4.94;100.00;100392.94;5204972;28;20021;-73
2022/11/21 08:06:52;;;;;;;16.33;3.75;;;;;;;5.30;100.00;100399.31;5203773;28;20040;-73
2022/11/21 08:09:27;;;;;;;9.80;3.05;;;;;;;5.49;100.00;100397.63;5203736;28;20044;-72
2022/11/21 08:12:00;;;;;;;11.05;2.78;;;;;;;5.70;100.00;100387.59;5204474;28;20036;-73
2022/11/21 08:14:32;;;;;;;16.75;3.42;;;;;;;5.91;100.00;100385.56;5203790;28;20026;-73
2022/11/21 08:17:04;;;;;;;12.73;3.00;;;;;;;6.08;100.00;100389.28;5203229;28;20486;-73
2022/11/21 08:19:34;;;;;;;15.50;2.95;;;;;;;6.25;100.00;100384.13;5203708;28;20021;-73
2022/11/21 08:22:04;;;;;;;9.63;3.15;;;;;;;6.36;100.00;100367.94;5204043;28;20083;-73
2022/11/21 08:24:36;;;;;;;16.13;2.90;;;;;;;6.45;100.00;100361.72;5203296;28;20751;-73
2022/11/21 08:27:06;;;;;;;9.68;3.45;;;;;;;6.61;100.00;100363.69;5199337;28;20461;-72
2022/11/21 08:29:37;;;;;;;12.77;3.05;;;;;;;6.54;100.00;100357.31;5203613;28;20108;-73
2022/11/21 08:32:07;;;;;;;12.68;3.00;;;;;;;6.65;100.00;100359.72;5200477;28;20103;-73
2022/11/21 08:34:38;;;;;;;10.88;3.00;;;;;;;6.60;100.00;100354.84;5203788;28;20030;-73
2022/11/21 08:37:09;;;;;;;7.50;3.25;;;;;;;6.48;100.00;100359.59;5202829;28;20457;-73
2022/11/21 08:39:39;;;;;;;11.80;3.05;;;;;;;6.43;100.00;100347.72;5203358;28;20028;-73
2022/11/21 08:42:10;;;;;;;13.63;3.25;;;;;;;6.48;100.00;100342.75;5203765;28;20518;-73
2022/11/21 08:44:40;;;;;;;11.32;2.92;;;;;;;6.66;100.00;100335.56;5202845;28;20280;-73
2022/11/21 08:47:10;;;;;;;14.35;3.10;;;;;;;6.55;100.00;100330.50;5202701;28;20057;-73
2022/11/21 08:49:41;;;;;;;10.07;2.97;;;;;;;6.38;100.00;100323.34;5202707;28;20678;-73
2022/11/21 08:52:12;;;;;;;12.25;3.38;;;;;;;6.37;100.00;100318.97;5203794;28;20052;-73
2022/11/21 08:54:44;;;;;;;14.75;3.58;;;;;;;6.56;100.00;100312.66;5203532;28;20033;-73
2022/11/21 08:57:14;;;;;;;14.70;4.25;;;;;;;6.67;100.00;100315.91;5202891;28;20025;-73
2022/11/21 08:59:45;;;;;;;11.02;3.60;;;;;;;6.83;100.00;100309.91;5202935;28;20017;-73
2022/11/21 09:02:15;;;;;;;16.45;4.22;;;;;;;7.03;100.00;100301.69;5202748;28;20057;-73
2022/11/21 09:04:45;;;;;;;14.77;3.47;;;;;;;7.11;100.00;100309.75;5203240;28;20029;-73
2022/11/21 09:07:16;;;;;;;18.75;5.35;;;;;;;6.97;100.00;100311.16;5202418;28;20029;-73
2022/11/21 09:09:46;;;;;;;15.35;4.50;;;;;;;6.97;100.00;100311.97;5203194;28;20387;-73
2022/11/21 09:12:17;;;;;;;10.20;3.28;;;;;;;6.92;100.00;100306.28;5202952;28;20024;-73
2022/11/21 09:20:25;;;;;;;16.85;3.72;;;;;;;6.75;100.00;100305.34;5212459;28;20361;-73
2022/11/21 09:22:56;;;;;;;15.65;3.30;;;;;;;6.41;100.00;100317.69;5213685;28;20033;-73
2022/11/21 09:25:26;;;;;;;12.63;3.60;;;;;;;6.26;100.00;100300.56;5207303;28;20028;-73
2022/11/21 09:28:02;;;;;;;8.57;2.78;;;;;;;6.32;100.00;100306.09;5208915;28;20391;-73
2022/11/21 09:30:32;;;;;;;;;;;;;;;6.32;100.00;100299.94;5211114;28;20482;-73
2022/11/21 09:33:05;;;;;;;12.82;3.30;;;;;;;6.43;100.00;100303.25;5203308;28;19909;-73
2022/11/21 09:35:36;;;;;;;13.05;3.42;;;;;;;6.43;100.00;100299.75;5210188;28;20017;-73
2022/11/21 09:38:07;;;;;;;16.70;3.22;;;;;;;6.47;100.00;100295.75;5210891;28;20187;-73
2022/11/21 09:40:43;;;;;;;12.60;2.83;;;;;;;6.40;100.00;100300.88;5206513;28;20097;-73
2022/11/21 09:43:55;;;;;;;13.85;3.70;;;;;;;6.07;100.00;100293.53;5206589;28;20033;-73
2022/11/21 09:46:34;;;;;;;17.80;3.63;;;;;;;6.08;100.00;100292.56;5209108;28;20038;-73
2022/11/21 09:49:08;;;;;;;18.50;3.55;;;;;;;6.08;100.00;100281.94;5214736;28;20385;-73
2022/11/21 09:51:41;;;;;;;17.95;3.85;;;;;;;6.09;100.00;100278.28;5214781;28;20047;-73
2022/11/21 09:54:22;;;;;;;19.02;4.80;;;;;;;6.18;100.00;100278.19;5216046;28;20029;-73
2022/11/21 09:56:55;;;;;;;11.65;4.10;;;;;;;6.12;100.00;100272.63;5211886;28;20119;-73
2022/11/21 09:59:34;;;;;;;14.10;3.97;;;;;;;6.11;100.00;100274.44;5202280;28;20386;-73
2022/11/21 10:02:16;;;;;;;16.65;3.80;;;;;;;6.26;100.00;100261.44;5214544;28;20621;-73
2022/11/21 10:04:48;;;;;;;13.00;3.33;;;;;;;6.42;100.00;100266.06;5210813;28;20027;-73
2022/11/21 10:07:24;;;;;;;10.55;4.05;;;;;;;6.61;100.00;100254.41;5212754;28;20025;-73
2022/11/21 10:10:47;;;;;;;12.23;3.13;;;;;;;6.84;100.00;100250.25;5207774;28;20144;-73
2022/11/21 10:13:38;;;;;;;19.25;3.95;;;;;;;6.80;100.00;100243.56;5201631;28;20041;-72
2022/11/21 10:16:16;;;;;;;11.32;3.10;;;;;;;6.87;100.00;100239.25;5210106;28;20029;-73
2022/11/21 10:18:59;;;;;;;9.48;3.13;;;;;;;6.99;100.00;100240.69;5215399;28;20453;-73
2022/11/21 10:22:02;;;;;;;14.45;3.65;;;;;;;7.16;100.00;100225.59;5210186;28;20050;-73
2022/11/21 10:24:42;;;;;;;19.35;3.63;;;;;;;7.26;100.00;100218.28;5214678;28;20103;-73
2022/11/21 10:27:22;;;;;;;19.63;3.63;;;;;;;7.31;100.00;100222.31;5209395;28;20013;-73
2022/11/21 10:29:59;;;;;;;16.90;4.05;;;;;;;7.38;100.00;100204.66;5209141;28;20498;-73
2022/11/21 10:32:40;;;;;;;20.95;3.65;;;;;;;7.47;100.00;100206.38;5207333;28;20382;-73
2022/11/21 10:35:20;;;;;;;11.88;4.35;;;;;;;7.38;100.00;100197.53;5216843;28;20030;-73
2022/11/21 10:38:00;;;;;;;17.27;4.00;;;;;;;7.31;100.00;100201.81;5213700;28;20031;-73
2022/11/21 10:40:40;;;;;;;11.45;3.72;;;;;;;7.43;100.00;100208.53;5210473;28;20052;-73
2022/11/21 10:46:19;;;;;;;9.88;3.00;;;;;;;7.39;100.00;100180.50;5211432;28;20036;-73
2022/11/21 10:49:12;;;;;;;9.35;3.05;;;;;;;7.44;100.00;100183.53;5212404;28;20029;-73
2022/11/21 10:51:50;;;;;;;12.27;3.38;;;;;;;7.29;100.00;100174.47;5212017;28;20021;-73
2022/11/21 10:54:33;;;;;;;12.65;3.30;;;;;;;7.17;100.00;100162.41;5213457;28;20056;-73
2022/11/21 10:57:11;;;;;;;8.75;3.25;;;;;;;7.18;100.00;100162.25;5213131;28;20075;-73
2022/11/21 11:00:16;;;;;;;11.50;3.40;;;;;;;7.18;100.00;100156.09;5206190;28;20021;-73
2022/11/21 11:02:55;;;;;;;16.73;3.10;;;;;;;7.17;100.00;100157.91;5208946;28;20029;-73
2022/11/21 11:05:40;;;;;;;20.33;3.50;;;;;;;7.13;100.00;100142.38;5217799;28;20078;-73
2022/11/21 11:08:13;;;;;;;14.23;3.78;;;;;;;7.17;100.00;100127.72;5207928;28;20031;-74
2022/11/21 11:11:01;;;;;;;12.32;3.95;;;;;;;7.11;100.00;100131.03;5216637;28;20498;-73
2022/11/21 11:13:35;;;;;;;10.15;3.67;;;;;;;7.07;100.00;100121.69;5213454;28;20032;-74
2022/11/21 11:16:05;;;;;;;13.85;3.72;;;;;;;7.09;100.00;100107.19;5213383;28;20022;-73
2022/11/21 11:18:49;;;;;;;9.40;4.40;;;;;;;7.04;100.00;100112.19;5208911;28;20067;-73
2022/11/21 11:21:23;;;;;;;13.93;4.60;;;;;;;7.00;100.00;100102.84;5217792;28;20071;-73
2022/11/21 11:24:06;;;;;;;10.88;4.55;;;;;;;6.94;100.00;100087.47;5215120;28;20487;-73
2022/11/21 11:26:45;;;;;;;13.93;4.32;;;;;;;6.96;100.00;100091.66;5213740;28;20024;-73
2022/11/21 11:29:20;;;;;;;10.63;4.80;;;;;;;6.90;100.00;100094.13;5214874;28;20418;-73
2022/11/21 11:31:51;;;;;;;9.00;4.72;;;;;;;7.02;100.00;100084.81;5209559;28;20025;-73
2022/11/21 11:34:25;;;;;;;11.40;4.90;;;;;;;7.01;100.00;100076.00;5218953;28;20040;-73
2022/11/21 11:36:55;;;;;;;8.98;4.28;;;;;;;7.07;100.00;100055.84;5213669;28;20403;-73
2022/11/21 11:39:32;;;;;;;22.92;4.88;;;;;;;7.10;100.00;100050.19;5218612;28;20075;-73
2022/11/21 11:48:10;;;;;;;9.48;3.88;;;;;;;7.27;100.00;100019.84;5212019;28;20025;-73
2022/11/21 11:50:47;;;;;;;12.13;3.92;;;;;;;7.34;100.00;100005.88;5210426;28;20029;-73
2022/11/21 11:53:25;;;;;;;11.77;4.10;;;;;;;7.37;100.00;99984.19;5216555;28;20032;-74
2022/11/21 11:56:07;;;;;;;10.23;3.90;;;;;;;7.30;100.00;99978.69;5208766;28;20108;-73
2022/11/21 11:58:48;;;;;;;13.38;3.90;;;;;;;7.34;100.00;100000.53;5203631;28;20079;-74
2022/11/21 12:01:37;;;;;;;11.00;4.70;;;;;;;7.43;100.00;99991.50;5204816;28;20471;-74
2022/11/21 12:04:18;;;;;;;18.77;4.45;;;;;;;7.45;100.00;99976.19;5204636;28;20040;-74
2022/11/21 12:06:59;;;;;;;18.27;6.22;;;;;;;7.54;100.00;99943.16;5205732;28;20029;-73
2022/11/21 12:09:34;;;;;;;15.52;4.68;;;;;;;7.55;100.00;99938.66;5205262;28;20040;-73
2022/11/21 12:12:31;;;;;;;9.80;4.55;;;;;;;7.66;100.00;99951.66;5205460;28;20126;-74